Terminal Aerodrome Forecast
Issued by NWS

Home | Current Version | Previous Version | Text Only | Print | Product List | Glossary Off
Versions: 1 2 3 4 5 6 7 8 9 10 11 12

000
FTUS43 KICT 271100
TAFHUT
TAF
KHUT 271121Z 2712/2812 14008KT P6SM SKC
     FM271500 16015G20KT P6SM SCT050
     FM280100 14008KT P6SM SCT050=

USA.gov is the U.S. government's official web portal to all federal, state and local government web resources and services.